sensor_id;sensor_type;location;lat;lon;timestamp;P1;durP1;ratioP1;P2;durP2;ratioP2
76900;SDS011;65859;43.020;25.096;2023-12-20T00:00:01;37.13;;;17.63;;
76900;SDS011;65859;43.020;25.096;2023-12-20T00:02:46;26.27;;;14.30;;
76900;SDS011;65859;43.020;25.096;2023-12-20T00:05:32;24.10;;;14.45;;
76900;SDS011;65859;43.020;25.096;2023-12-20T00:08:17;29.05;;;16.30;;
76900;SDS011;65859;43.020;25.096;2023-12-20T00:11:01;33.25;;;17.23;;
76900;SDS011;65859;43.020;25.096;2023-12-20T00:13:46;28.67;;;15.93;;
76900;SDS011;65859;43.020;25.096;2023-12-20T00:16:30;26.67;;;15.07;;
76900;SDS011;65859;43.020;25.096;2023-12-20T00:19:16;27.65;;;15.90;;
76900;SDS011;65859;43.020;25.096;2023-12-20T00:22:01;28.75;;;16.40;;
76900;SDS011;65859;43.020;25.096;2023-12-20T00:24:46;31.88;;;18.27;;
76900;SDS011;65859;43.020;25.096;2023-12-20T00:27:31;25.00;;;15.50;;
76900;SDS011;65859;43.020;25.096;2023-12-20T00:30:16;27.48;;;15.32;;
76900;SDS011;65859;43.020;25.096;2023-12-20T00:33:01;30.55;;;17.52;;
76900;SDS011;65859;43.020;25.096;2023-12-20T00:35:48;28.05;;;17.05;;
76900;SDS011;65859;43.020;25.096;2023-12-20T00:38:32;26.67;;;15.65;;
76900;SDS011;65859;43.020;25.096;2023-12-20T00:41:17;22.50;;;14.18;;
76900;SDS011;65859;43.020;25.096;2023-12-20T00:44:01;21.95;;;13.82;;
76900;SDS011;65859;43.020;25.096;2023-12-20T00:46:46;20.70;;;12.93;;
76900;SDS011;65859;43.020;25.096;2023-12-20T00:49:32;22.23;;;13.35;;
76900;SDS011;65859;43.020;25.096;2023-12-20T00:52:18;20.83;;;12.73;;
76900;SDS011;65859;43.020;25.096;2023-12-20T00:55:03;22.05;;;13.20;;
76900;SDS011;65859;43.020;25.096;2023-12-20T00:57:49;22.70;;;13.68;;
76900;SDS011;65859;43.020;25.096;2023-12-20T01:00:34;22.60;;;13.60;;
76900;SDS011;65859;43.020;25.096;2023-12-20T01:03:19;21.33;;;13.32;;
76900;SDS011;65859;43.020;25.096;2023-12-20T01:06:04;19.55;;;12.90;;
76900;SDS011;65859;43.020;25.096;2023-12-20T01:08:49;18.58;;;12.15;;
76900;SDS011;65859;43.020;25.096;2023-12-20T01:11:34;21.80;;;12.05;;
76900;SDS011;65859;43.020;25.096;2023-12-20T01:14:18;23.92;;;14.23;;
76900;SDS011;65859;43.020;25.096;2023-12-20T01:17:03;25.05;;;14.77;;
76900;SDS011;65859;43.020;25.096;2023-12-20T01:19:50;24.52;;;15.38;;
76900;SDS011;65859;43.020;25.096;2023-12-20T01:22:34;22.30;;;13.50;;
76900;SDS011;65859;43.020;25.096;2023-12-20T01:25:19;23.75;;;12.57;;
76900;SDS011;65859;43.020;25.096;2023-12-20T01:28:04;17.40;;;11.82;;
76900;SDS011;65859;43.020;25.096;2023-12-20T01:30:49;19.63;;;12.40;;
76900;SDS011;65859;43.020;25.096;2023-12-20T01:33:33;19.27;;;12.75;;
76900;SDS011;65859;43.020;25.096;2023-12-20T01:36:18;20.05;;;12.63;;
76900;SDS011;65859;43.020;25.096;2023-12-20T01:39:03;19.33;;;12.60;;
76900;SDS011;65859;43.020;25.096;2023-12-20T01:41:47;19.40;;;13.02;;
76900;SDS011;65859;43.020;25.096;2023-12-20T01:44:33;20.10;;;13.25;;
76900;SDS011;65859;43.020;25.096;2023-12-20T01:47:17;22.67;;;13.60;;
76900;SDS011;65859;43.020;25.096;2023-12-20T01:50:03;19.25;;;13.18;;
76900;SDS011;65859;43.020;25.096;2023-12-20T01:52:51;18.45;;;13.45;;
76900;SDS011;65859;43.020;25.096;2023-12-20T01:55:40;23.83;;;14.35;;
76900;SDS011;65859;43.020;25.096;2023-12-20T01:58:25;20.30;;;13.43;;
76900;SDS011;65859;43.020;25.096;2023-12-20T02:01:11;22.73;;;14.40;;
76900;SDS011;65859;43.020;25.096;2023-12-20T02:03:57;18.95;;;13.77;;
76900;SDS011;65859;43.020;25.096;2023-12-20T02:06:42;20.50;;;13.25;;
76900;SDS011;65859;43.020;25.096;2023-12-20T02:09:29;21.25;;;13.90;;
76900;SDS011;65859;43.020;25.096;2023-12-20T02:12:15;23.67;;;14.98;;
76900;SDS011;65859;43.020;25.096;2023-12-20T02:15:01;23.10;;;14.38;;
76900;SDS011;65859;43.020;25.096;2023-12-20T02:17:46;22.40;;;13.73;;
76900;SDS011;65859;43.020;25.096;2023-12-20T02:20:33;28.58;;;15.80;;
76900;SDS011;65859;43.020;25.096;2023-12-20T02:23:18;30.83;;;16.98;;
76900;SDS011;65859;43.020;25.096;2023-12-20T02:26:03;33.05;;;17.52;;
76900;SDS011;65859;43.020;25.096;2023-12-20T02:28:49;32.90;;;17.55;;
76900;SDS011;65859;43.020;25.096;2023-12-20T02:31:34;32.67;;;16.58;;
76900;SDS011;65859;43.020;25.096;2023-12-20T02:34:19;32.17;;;15.73;;
76900;SDS011;65859;43.020;25.096;2023-12-20T02:37:03;28.73;;;15.00;;
76900;SDS011;65859;43.020;25.096;2023-12-20T02:39:48;29.13;;;15.13;;
76900;SDS011;65859;43.020;25.096;2023-12-20T02:42:33;31.23;;;16.63;;
76900;SDS011;65859;43.020;25.096;2023-12-20T02:45:18;20.08;;;12.10;;
76900;SDS011;65859;43.020;25.096;2023-12-20T02:48:03;22.30;;;12.68;;
76900;SDS011;65859;43.020;25.096;2023-12-20T02:50:50;22.60;;;12.38;;
76900;SDS011;65859;43.020;25.096;2023-12-20T02:53:35;21.00;;;12.50;;
76900;SDS011;65859;43.020;25.096;2023-12-20T02:56:20;27.80;;;13.98;;
76900;SDS011;65859;43.020;25.096;2023-12-20T02:59:05;23.88;;;12.48;;
76900;SDS011;65859;43.020;25.096;2023-12-20T03:01:51;19.92;;;11.75;;
76900;SDS011;65859;43.020;25.096;2023-12-20T03:04:36;27.00;;;13.98;;
76900;SDS011;65859;43.020;25.096;2023-12-20T03:07:21;18.92;;;11.55;;
76900;SDS011;65859;43.020;25.096;2023-12-20T03:10:05;26.30;;;13.90;;
76900;SDS011;65859;43.020;25.096;2023-12-20T03:12:51;21.80;;;13.15;;
76900;SDS011;65859;43.020;25.096;2023-12-20T03:15:36;23.30;;;13.45;;
76900;SDS011;65859;43.020;25.096;2023-12-20T03:18:21;24.70;;;13.73;;
76900;SDS011;65859;43.020;25.096;2023-12-20T03:21:07;23.85;;;13.65;;
76900;SDS011;65859;43.020;25.096;2023-12-20T03:23:52;22.10;;;13.52;;
76900;SDS011;65859;43.020;25.096;2023-12-20T03:26:39;23.30;;;13.02;;
76900;SDS011;65859;43.020;25.096;2023-12-20T03:29:24;24.00;;;14.73;;
76900;SDS011;65859;43.020;25.096;2023-12-20T03:32:09;22.73;;;13.75;;
76900;SDS011;65859;43.020;25.096;2023-12-20T03:34:53;24.25;;;13.63;;
76900;SDS011;65859;43.020;25.096;2023-12-20T03:37:38;27.02;;;14.70;;
76900;SDS011;65859;43.020;25.096;2023-12-20T03:40:22;26.13;;;15.23;;
76900;SDS011;65859;43.020;25.096;2023-12-20T03:43:07;26.38;;;15.05;;
76900;SDS011;65859;43.020;25.096;2023-12-20T03:45:52;24.95;;;15.13;;
76900;SDS011;65859;43.020;25.096;2023-12-20T03:48:37;26.45;;;15.48;;
76900;SDS011;65859;43.020;25.096;2023-12-20T03:51:24;32.03;;;16.08;;
76900;SDS011;65859;43.020;25.096;2023-12-20T03:54:09;29.20;;;15.07;;
76900;SDS011;65859;43.020;25.096;2023-12-20T03:56:54;22.30;;;13.82;;
76900;SDS011;65859;43.020;25.096;2023-12-20T03:59:38;19.58;;;13.20;;
76900;SDS011;65859;43.020;25.096;2023-12-20T04:02:23;22.85;;;13.98;;
76900;SDS011;65859;43.020;25.096;2023-12-20T04:05:08;22.20;;;13.65;;
76900;SDS011;65859;43.020;25.096;2023-12-20T04:07:53;21.95;;;13.85;;
76900;SDS011;65859;43.020;25.096;2023-12-20T04:10:38;21.73;;;13.82;;
76900;SDS011;65859;43.020;25.096;2023-12-20T04:13:23;20.20;;;13.93;;
76900;SDS011;65859;43.020;25.096;2023-12-20T04:16:07;22.15;;;13.82;;
76900;SDS011;65859;43.020;25.096;2023-12-20T04:18:52;19.70;;;12.85;;
76900;SDS011;65859;43.020;25.096;2023-12-20T04:21:38;21.15;;;12.65;;
76900;SDS011;65859;43.020;25.096;2023-12-20T04:24:23;20.55;;;13.02;;
76900;SDS011;65859;43.020;25.096;2023-12-20T04:27:07;24.60;;;15.05;;
76900;SDS011;65859;43.020;25.096;2023-12-20T04:29:52;23.23;;;14.60;;
76900;SDS011;65859;43.020;25.096;2023-12-20T04:32:37;23.17;;;14.52;;
76900;SDS011;65859;43.020;25.096;2023-12-20T04:35:21;29.50;;;16.05;;
76900;SDS011;65859;43.020;25.096;2023-12-20T04:38:06;30.92;;;16.60;;
76900;SDS011;65859;43.020;25.096;2023-12-20T04:40:51;27.80;;;16.48;;
76900;SDS011;65859;43.020;25.096;2023-12-20T04:43:35;27.55;;;17.27;;
76900;SDS011;65859;43.020;25.096;2023-12-20T04:46:21;38.60;;;26.35;;
76900;SDS011;65859;43.020;25.096;2023-12-20T04:49:05;35.20;;;21.20;;
76900;SDS011;65859;43.020;25.096;2023-12-20T04:51:52;31.63;;;18.58;;
76900;SDS011;65859;43.020;25.096;2023-12-20T04:54:36;25.48;;;15.20;;
76900;SDS011;65859;43.020;25.096;2023-12-20T04:57:21;24.20;;;14.43;;
76900;SDS011;65859;43.020;25.096;2023-12-20T05:00:06;22.42;;;13.73;;
76900;SDS011;65859;43.020;25.096;2023-12-20T05:02:54;24.08;;;14.77;;
76900;SDS011;65859;43.020;25.096;2023-12-20T05:05:39;28.92;;;16.35;;
76900;SDS011;65859;43.020;25.096;2023-12-20T05:08:24;27.55;;;15.98;;
76900;SDS011;65859;43.020;25.096;2023-12-20T05:11:10;25.88;;;16.10;;
76900;SDS011;65859;43.020;25.096;2023-12-20T05:13:57;27.50;;;16.15;;
76900;SDS011;65859;43.020;25.096;2023-12-20T05:16:42;26.13;;;16.20;;
76900;SDS011;65859;43.020;25.096;2023-12-20T05:19:27;32.75;;;18.60;;
76900;SDS011;65859;43.020;25.096;2023-12-20T05:22:13;27.33;;;16.90;;
76900;SDS011;65859;43.020;25.096;2023-12-20T05:24:58;31.63;;;17.80;;
76900;SDS011;65859;43.020;25.096;2023-12-20T05:27:43;32.10;;;19.80;;
76900;SDS011;65859;43.020;25.096;2023-12-20T05:30:27;33.75;;;20.17;;
76900;SDS011;65859;43.020;25.096;2023-12-20T05:33:12;43.33;;;23.13;;
76900;SDS011;65859;43.020;25.096;2023-12-20T05:35:56;61.05;;;30.98;;
76900;SDS011;65859;43.020;25.096;2023-12-20T05:38:41;58.88;;;29.63;;
76900;SDS011;65859;43.020;25.096;2023-12-20T05:41:26;69.57;;;35.08;;
76900;SDS011;65859;43.020;25.096;2023-12-20T05:44:11;44.42;;;25.05;;
76900;SDS011;65859;43.020;25.096;2023-12-20T05:46:56;38.22;;;21.02;;
76900;SDS011;65859;43.020;25.096;2023-12-20T05:49:41;42.30;;;21.95;;
76900;SDS011;65859;43.020;25.096;2023-12-20T05:52:29;41.25;;;23.23;;
76900;SDS011;65859;43.020;25.096;2023-12-20T05:55:13;39.90;;;24.45;;
76900;SDS011;65859;43.020;25.096;2023-12-20T05:57:58;32.92;;;20.15;;
76900;SDS011;65859;43.020;25.096;2023-12-20T06:00:42;29.50;;;17.95;;
76900;SDS011;65859;43.020;25.096;2023-12-20T06:03:27;26.35;;;16.13;;
76900;SDS011;65859;43.020;25.096;2023-12-20T06:06:12;24.83;;;17.17;;
76900;SDS011;65859;43.020;25.096;2023-12-20T06:08:57;30.08;;;18.17;;
76900;SDS011;65859;43.020;25.096;2023-12-20T06:11:42;36.13;;;20.95;;
76900;SDS011;65859;43.020;25.096;2023-12-20T06:14:27;36.05;;;20.60;;
76900;SDS011;65859;43.020;25.096;2023-12-20T06:17:12;36.70;;;21.80;;
76900;SDS011;65859;43.020;25.096;2023-12-20T06:19:56;43.13;;;24.60;;
76900;SDS011;65859;43.020;25.096;2023-12-20T06:22:42;36.63;;;23.55;;
76900;SDS011;65859;43.020;25.096;2023-12-20T06:25:27;37.38;;;22.98;;
76900;SDS011;65859;43.020;25.096;2023-12-20T06:28:12;48.75;;;27.90;;
76900;SDS011;65859;43.020;25.096;2023-12-20T06:30:58;44.53;;;27.65;;
76900;SDS011;65859;43.020;25.096;2023-12-20T06:33:44;43.33;;;26.38;;
76900;SDS011;65859;43.020;25.096;2023-12-20T06:36:29;38.67;;;23.50;;
76900;SDS011;65859;43.020;25.096;2023-12-20T06:39:13;37.25;;;22.65;;
76900;SDS011;65859;43.020;25.096;2023-12-20T06:41:58;36.58;;;20.45;;
76900;SDS011;65859;43.020;25.096;2023-12-20T06:44:42;32.20;;;20.38;;
76900;SDS011;65859;43.020;25.096;2023-12-20T06:47:27;35.95;;;21.15;;
76900;SDS011;65859;43.020;25.096;2023-12-20T06:50:11;32.70;;;20.15;;
76900;SDS011;65859;43.020;25.096;2023-12-20T06:52:58;29.20;;;17.52;;
76900;SDS011;65859;43.020;25.096;2023-12-20T06:55:42;33.15;;;21.95;;
76900;SDS011;65859;43.020;25.096;2023-12-20T06:58:27;25.13;;;16.52;;
76900;SDS011;65859;43.020;25.096;2023-12-20T07:01:12;29.30;;;15.90;;
76900;SDS011;65859;43.020;25.096;2023-12-20T07:03:58;23.15;;;14.77;;
76900;SDS011;65859;43.020;25.096;2023-12-20T07:06:43;26.30;;;16.25;;
76900;SDS011;65859;43.020;25.096;2023-12-20T07:09:28;25.52;;;16.33;;
76900;SDS011;65859;43.020;25.096;2023-12-20T07:12:13;25.52;;;16.20;;
76900;SDS011;65859;43.020;25.096;2023-12-20T07:14:57;25.42;;;15.57;;
76900;SDS011;65859;43.020;25.096;2023-12-20T07:17:42;29.95;;;18.65;;
76900;SDS011;65859;43.020;25.096;2023-12-20T07:20:27;30.00;;;17.90;;
76900;SDS011;65859;43.020;25.096;2023-12-20T07:23:13;30.05;;;18.63;;
76900;SDS011;65859;43.020;25.096;2023-12-20T07:25:58;67.78;;;36.75;;
76900;SDS011;65859;43.020;25.096;2023-12-20T07:28:42;138.55;;;67.40;;
76900;SDS011;65859;43.020;25.096;2023-12-20T07:31:27;49.00;;;25.67;;
76900;SDS011;65859;43.020;25.096;2023-12-20T07:34:11;36.53;;;22.58;;
76900;SDS011;65859;43.020;25.096;2023-12-20T07:36:56;50.05;;;28.90;;
76900;SDS011;65859;43.020;25.096;2023-12-20T07:39:41;61.10;;;31.42;;
76900;SDS011;65859;43.020;25.096;2023-12-20T07:42:25;56.08;;;32.15;;
76900;SDS011;65859;43.020;25.096;2023-12-20T07:45:10;128.63;;;52.97;;
76900;SDS011;65859;43.020;25.096;2023-12-20T07:47:55;179.80;;;77.45;;
76900;SDS011;65859;43.020;25.096;2023-12-20T07:50:41;105.68;;;51.50;;
76900;SDS011;65859;43.020;25.096;2023-12-20T07:53:28;74.25;;;42.53;;
76900;SDS011;65859;43.020;25.096;2023-12-20T07:56:13;60.05;;;36.65;;
76900;SDS011;65859;43.020;25.096;2023-12-20T07:58:59;51.42;;;31.80;;
76900;SDS011;65859;43.020;25.096;2023-12-20T08:01:44;40.25;;;27.52;;
76900;SDS011;65859;43.020;25.096;2023-12-20T08:04:29;46.67;;;29.08;;
76900;SDS011;65859;43.020;25.096;2023-12-20T08:07:14;40.20;;;26.85;;
76900;SDS011;65859;43.020;25.096;2023-12-20T08:09:59;41.60;;;28.65;;
76900;SDS011;65859;43.020;25.096;2023-12-20T08:12:43;42.97;;;29.42;;
76900;SDS011;65859;43.020;25.096;2023-12-20T08:15:28;42.42;;;29.30;;
76900;SDS011;65859;43.020;25.096;2023-12-20T08:18:12;64.75;;;41.88;;
76900;SDS011;65859;43.020;25.096;2023-12-20T08:20:57;44.75;;;30.40;;
76900;SDS011;65859;43.020;25.096;2023-12-20T08:23:44;53.05;;;34.83;;
76900;SDS011;65859;43.020;25.096;2023-12-20T08:26:29;61.05;;;42.45;;
76900;SDS011;65859;43.020;25.096;2023-12-20T08:29:13;64.55;;;44.60;;
76900;SDS011;65859;43.020;25.096;2023-12-20T08:31:58;70.40;;;47.03;;
76900;SDS011;65859;43.020;25.096;2023-12-20T08:34:43;65.03;;;45.28;;
76900;SDS011;65859;43.020;25.096;2023-12-20T08:37:28;70.63;;;47.38;;
76900;SDS011;65859;43.020;25.096;2023-12-20T08:40:14;68.55;;;45.53;;
76900;SDS011;65859;43.020;25.096;2023-12-20T08:42:58;76.40;;;49.40;;
76900;SDS011;65859;43.020;25.096;2023-12-20T08:45:43;66.85;;;46.80;;
76900;SDS011;65859;43.020;25.096;2023-12-20T08:48:28;70.55;;;46.72;;
76900;SDS011;65859;43.020;25.096;2023-12-20T08:51:13;77.93;;;47.53;;
76900;SDS011;65859;43.020;25.096;2023-12-20T08:53:59;60.13;;;41.28;;
76900;SDS011;65859;43.020;25.096;2023-12-20T08:56:44;46.33;;;33.85;;
76900;SDS011;65859;43.020;25.096;2023-12-20T08:59:29;54.65;;;36.97;;
76900;SDS011;65859;43.020;25.096;2023-12-20T09:02:14;51.30;;;37.03;;
76900;SDS011;65859;43.020;25.096;2023-12-20T09:05:00;51.05;;;36.30;;
76900;SDS011;65859;43.020;25.096;2023-12-20T09:07:46;40.90;;;27.95;;
76900;SDS011;65859;43.020;25.096;2023-12-20T09:10:30;44.85;;;31.17;;
76900;SDS011;65859;43.020;25.096;2023-12-20T09:13:15;48.08;;;31.75;;
76900;SDS011;65859;43.020;25.096;2023-12-20T09:16:00;48.13;;;33.17;;
76900;SDS011;65859;43.020;25.096;2023-12-20T09:18:46;47.22;;;33.65;;
76900;SDS011;65859;43.020;25.096;2023-12-20T09:21:30;43.35;;;32.78;;
76900;SDS011;65859;43.020;25.096;2023-12-20T09:24:17;48.15;;;32.28;;
76900;SDS011;65859;43.020;25.096;2023-12-20T09:27:01;44.75;;;29.50;;
76900;SDS011;65859;43.020;25.096;2023-12-20T09:29:47;39.90;;;29.95;;
76900;SDS011;65859;43.020;25.096;2023-12-20T09:32:32;45.53;;;30.40;;
76900;SDS011;65859;43.020;25.096;2023-12-20T09:35:17;36.25;;;23.75;;
76900;SDS011;65859;43.020;25.096;2023-12-20T09:38:02;41.53;;;29.05;;
76900;SDS011;65859;43.020;25.096;2023-12-20T09:40:47;31.58;;;22.15;;
76900;SDS011;65859;43.020;25.096;2023-12-20T09:43:32;27.45;;;19.83;;
76900;SDS011;65859;43.020;25.096;2023-12-20T09:46:21;24.77;;;18.15;;
76900;SDS011;65859;43.020;25.096;2023-12-20T09:49:10;28.30;;;20.58;;
76900;SDS011;65859;43.020;25.096;2023-12-20T09:51:56;29.60;;;21.65;;
76900;SDS011;65859;43.020;25.096;2023-12-20T09:54:42;34.55;;;24.13;;
76900;SDS011;65859;43.020;25.096;2023-12-20T09:57:29;33.53;;;26.77;;
76900;SDS011;65859;43.020;25.096;2023-12-20T10:00:14;33.13;;;26.33;;
76900;SDS011;65859;43.020;25.096;2023-12-20T10:03:00;38.67;;;26.90;;
76900;SDS011;65859;43.020;25.096;2023-12-20T10:05:45;34.53;;;26.02;;
76900;SDS011;65859;43.020;25.096;2023-12-20T10:08:33;35.67;;;26.90;;
76900;SDS011;65859;43.020;25.096;2023-12-20T10:11:17;46.92;;;30.92;;
76900;SDS011;65859;43.020;25.096;2023-12-20T10:14:03;35.00;;;26.48;;
76900;SDS011;65859;43.020;25.096;2023-12-20T10:16:49;34.83;;;28.10;;
76900;SDS011;65859;43.020;25.096;2023-12-20T10:19:36;56.70;;;39.17;;
76900;SDS011;65859;43.020;25.096;2023-12-20T10:22:22;36.90;;;27.17;;
76900;SDS011;65859;43.020;25.096;2023-12-20T10:25:08;38.05;;;26.13;;
76900;SDS011;65859;43.020;25.096;2023-12-20T10:28:15;32.45;;;23.35;;
76900;SDS011;65859;43.020;25.096;2023-12-20T10:31:05;30.42;;;22.92;;
76900;SDS011;65859;43.020;25.096;2023-12-20T10:33:52;27.65;;;20.90;;
76900;SDS011;65859;43.020;25.096;2023-12-20T10:36:39;34.05;;;20.67;;
76900;SDS011;65859;43.020;25.096;2023-12-20T10:39:23;28.05;;;21.70;;
76900;SDS011;65859;43.020;25.096;2023-12-20T10:42:12;23.08;;;19.67;;
76900;SDS011;65859;43.020;25.096;2023-12-20T10:44:58;23.15;;;19.23;;
76900;SDS011;65859;43.020;25.096;2023-12-20T10:47:46;17.45;;;14.98;;
76900;SDS011;65859;43.020;25.096;2023-12-20T10:50:33;17.02;;;13.65;;
76900;SDS011;65859;43.020;25.096;2023-12-20T10:53:22;18.13;;;13.88;;
76900;SDS011;65859;43.020;25.096;2023-12-20T10:56:10;15.30;;;12.07;;
76900;SDS011;65859;43.020;25.096;2023-12-20T10:58:59;16.90;;;12.07;;
76900;SDS011;65859;43.020;25.096;2023-12-20T11:01:46;20.15;;;12.85;;
76900;SDS011;65859;43.020;25.096;2023-12-20T11:07:43;25.65;;;13.10;;
76900;SDS011;65859;43.020;25.096;2023-12-20T11:10:58;16.95;;;13.05;;
76900;SDS011;65859;43.020;25.096;2023-12-20T11:13:47;18.38;;;14.40;;
76900;SDS011;65859;43.020;25.096;2023-12-20T11:16:50;19.85;;;15.18;;
76900;SDS011;65859;43.020;25.096;2023-12-20T11:22:52;22.05;;;15.63;;
76900;SDS011;65859;43.020;25.096;2023-12-20T11:25:45;21.20;;;16.55;;
76900;SDS011;65859;43.020;25.096;2023-12-20T11:28:32;31.83;;;23.17;;
76900;SDS011;65859;43.020;25.096;2023-12-20T11:31:18;99.15;;;45.63;;
76900;SDS011;65859;43.020;25.096;2023-12-20T11:34:15;39.58;;;22.73;;
76900;SDS011;65859;43.020;25.096;2023-12-20T11:37:02;30.90;;;22.35;;
76900;SDS011;65859;43.020;25.096;2023-12-20T11:39:56;36.88;;;25.27;;
76900;SDS011;65859;43.020;25.096;2023-12-20T11:43:05;33.45;;;23.70;;
76900;SDS011;65859;43.020;25.096;2023-12-20T11:45:51;36.33;;;25.65;;
76900;SDS011;65859;43.020;25.096;2023-12-20T11:48:37;30.88;;;22.38;;
76900;SDS011;65859;43.020;25.096;2023-12-20T11:51:23;47.50;;;27.55;;
76900;SDS011;65859;43.020;25.096;2023-12-20T11:54:08;40.20;;;27.90;;
76900;SDS011;65859;43.020;25.096;2023-12-20T11:56:55;38.58;;;30.02;;
76900;SDS011;65859;43.020;25.096;2023-12-20T11:59:41;44.42;;;36.70;;
76900;SDS011;65859;43.020;25.096;2023-12-20T12:02:27;41.58;;;37.08;;
76900;SDS011;65859;43.020;25.096;2023-12-20T12:05:11;34.30;;;28.65;;
76900;SDS011;65859;43.020;25.096;2023-12-20T12:07:56;32.38;;;26.50;;
76900;SDS011;65859;43.020;25.096;2023-12-20T12:10:42;33.28;;;28.30;;
76900;SDS011;65859;43.020;25.096;2023-12-20T12:13:28;51.33;;;41.88;;
76900;SDS011;65859;43.020;25.096;2023-12-20T12:16:16;34.40;;;27.33;;
76900;SDS011;65859;43.020;25.096;2023-12-20T12:19:05;29.27;;;24.00;;
76900;SDS011;65859;43.020;25.096;2023-12-20T12:21:50;34.58;;;25.75;;
76900;SDS011;65859;43.020;25.096;2023-12-20T12:24:49;27.35;;;20.15;;
76900;SDS011;65859;43.020;25.096;2023-12-20T12:27:34;25.45;;;17.33;;
76900;SDS011;65859;43.020;25.096;2023-12-20T12:30:20;26.80;;;21.20;;
76900;SDS011;65859;43.020;25.096;2023-12-20T12:33:05;30.98;;;21.83;;
76900;SDS011;65859;43.020;25.096;2023-12-20T12:35:50;31.23;;;24.13;;
76900;SDS011;65859;43.020;25.096;2023-12-20T12:38:36;30.17;;;22.83;;
76900;SDS011;65859;43.020;25.096;2023-12-20T12:41:20;33.92;;;24.27;;
76900;SDS011;65859;43.020;25.096;2023-12-20T12:44:05;27.90;;;21.27;;
76900;SDS011;65859;43.020;25.096;2023-12-20T12:46:49;32.05;;;21.45;;
76900;SDS011;65859;43.020;25.096;2023-12-20T12:49:37;29.63;;;23.23;;
76900;SDS011;65859;43.020;25.096;2023-12-20T12:52:24;27.40;;;20.73;;
76900;SDS011;65859;43.020;25.096;2023-12-20T12:55:10;29.67;;;22.02;;
76900;SDS011;65859;43.020;25.096;2023-12-20T12:57:55;28.60;;;20.83;;
76900;SDS011;65859;43.020;25.096;2023-12-20T13:00:41;30.45;;;21.15;;
76900;SDS011;65859;43.020;25.096;2023-12-20T13:03:25;36.13;;;25.55;;
76900;SDS011;65859;43.020;25.096;2023-12-20T13:06:10;35.70;;;25.08;;
76900;SDS011;65859;43.020;25.096;2023-12-20T13:08:55;37.15;;;26.30;;
76900;SDS011;65859;43.020;25.096;2023-12-20T13:11:40;47.35;;;29.70;;
76900;SDS011;65859;43.020;25.096;2023-12-20T13:14:24;49.45;;;30.05;;
76900;SDS011;65859;43.020;25.096;2023-12-20T13:17:09;44.45;;;27.25;;
76900;SDS011;65859;43.020;25.096;2023-12-20T13:19:54;39.60;;;27.45;;
76900;SDS011;65859;43.020;25.096;2023-12-20T13:22:39;60.63;;;35.42;;
76900;SDS011;65859;43.020;25.096;2023-12-20T13:25:23;78.55;;;44.22;;
76900;SDS011;65859;43.020;25.096;2023-12-20T13:28:08;70.47;;;43.40;;
76900;SDS011;65859;43.020;25.096;2023-12-20T13:30:55;64.55;;;38.90;;
76900;SDS011;65859;43.020;25.096;2023-12-20T13:33:39;50.05;;;31.77;;
76900;SDS011;65859;43.020;25.096;2023-12-20T13:36:24;68.90;;;37.20;;
76900;SDS011;65859;43.020;25.096;2023-12-20T13:39:09;67.20;;;37.50;;
76900;SDS011;65859;43.020;25.096;2023-12-20T13:41:54;70.38;;;39.83;;
76900;SDS011;65859;43.020;25.096;2023-12-20T13:44:39;51.70;;;30.15;;
76900;SDS011;65859;43.020;25.096;2023-12-20T13:47:23;57.08;;;35.05;;
76900;SDS011;65859;43.020;25.096;2023-12-20T13:50:08;64.50;;;39.50;;
76900;SDS011;65859;43.020;25.096;2023-12-20T13:52:53;76.03;;;44.13;;
76900;SDS011;65859;43.020;25.096;2023-12-20T13:55:38;96.32;;;54.92;;
76900;SDS011;65859;43.020;25.096;2023-12-20T13:58:23;85.47;;;50.63;;
76900;SDS011;65859;43.020;25.096;2023-12-20T14:01:10;95.97;;;58.88;;
76900;SDS011;65859;43.020;25.096;2023-12-20T14:03:55;88.78;;;44.72;;
76900;SDS011;65859;43.020;25.096;2023-12-20T14:06:39;92.55;;;50.92;;
76900;SDS011;65859;43.020;25.096;2023-12-20T14:09:24;83.75;;;49.88;;
76900;SDS011;65859;43.020;25.096;2023-12-20T14:12:10;99.28;;;55.15;;
76900;SDS011;65859;43.020;25.096;2023-12-20T14:14:55;95.53;;;58.60;;
76900;SDS011;65859;43.020;25.096;2023-12-20T14:17:40;119.07;;;72.25;;
76900;SDS011;65859;43.020;25.096;2023-12-20T14:20:27;107.32;;;72.72;;
76900;SDS011;65859;43.020;25.096;2023-12-20T14:23:13;138.38;;;84.10;;
76900;SDS011;65859;43.020;25.096;2023-12-20T14:25:59;194.43;;;115.03;;
76900;SDS011;65859;43.020;25.096;2023-12-20T14:28:43;182.35;;;103.72;;
76900;SDS011;65859;43.020;25.096;2023-12-20T14:31:30;192.13;;;101.95;;
76900;SDS011;65859;43.020;25.096;2023-12-20T14:34:15;148.68;;;80.10;;
76900;SDS011;65859;43.020;25.096;2023-12-20T14:37:00;112.03;;;62.85;;
76900;SDS011;65859;43.020;25.096;2023-12-20T14:39:44;88.63;;;50.72;;
76900;SDS011;65859;43.020;25.096;2023-12-20T14:42:29;91.50;;;54.97;;
76900;SDS011;65859;43.020;25.096;2023-12-20T14:45:16;110.32;;;65.28;;
76900;SDS011;65859;43.020;25.096;2023-12-20T14:48:01;459.25;;;161.57;;
76900;SDS011;65859;43.020;25.096;2023-12-20T14:50:46;247.77;;;94.07;;
76900;SDS011;65859;43.020;25.096;2023-12-20T14:53:32;173.60;;;74.03;;
76900;SDS011;65859;43.020;25.096;2023-12-20T14:56:19;301.42;;;114.60;;
76900;SDS011;65859;43.020;25.096;2023-12-20T14:59:04;151.30;;;67.25;;
76900;SDS011;65859;43.020;25.096;2023-12-20T15:01:50;151.55;;;69.90;;
76900;SDS011;65859;43.020;25.096;2023-12-20T15:04:35;84.50;;;43.30;;
76900;SDS011;65859;43.020;25.096;2023-12-20T15:07:19;58.92;;;33.05;;
76900;SDS011;65859;43.020;25.096;2023-12-20T15:10:05;67.75;;;36.22;;
76900;SDS011;65859;43.020;25.096;2023-12-20T15:12:51;89.53;;;43.13;;
76900;SDS011;65859;43.020;25.096;2023-12-20T15:15:35;70.80;;;38.88;;
76900;SDS011;65859;43.020;25.096;2023-12-20T15:18:21;74.43;;;43.55;;
76900;SDS011;65859;43.020;25.096;2023-12-20T15:21:06;95.47;;;58.08;;
76900;SDS011;65859;43.020;25.096;2023-12-20T15:23:50;100.05;;;58.92;;
76900;SDS011;65859;43.020;25.096;2023-12-20T15:26:38;102.95;;;59.28;;
76900;SDS011;65859;43.020;25.096;2023-12-20T15:29:23;111.32;;;60.30;;
76900;SDS011;65859;43.020;25.096;2023-12-20T15:32:09;129.85;;;70.40;;
76900;SDS011;65859;43.020;25.096;2023-12-20T15:34:53;138.60;;;72.47;;
76900;SDS011;65859;43.020;25.096;2023-12-20T15:37:39;283.45;;;143.02;;
76900;SDS011;65859;43.020;25.096;2023-12-20T15:40:24;434.63;;;251.30;;
76900;SDS011;65859;43.020;25.096;2023-12-20T15:43:09;323.23;;;184.68;;
76900;SDS011;65859;43.020;25.096;2023-12-20T15:45:53;212.10;;;121.15;;
76900;SDS011;65859;43.020;25.096;2023-12-20T15:48:38;177.90;;;109.15;;
76900;SDS011;65859;43.020;25.096;2023-12-20T15:51:23;198.07;;;115.75;;
76900;SDS011;65859;43.020;25.096;2023-12-20T15:54:08;225.02;;;131.98;;
76900;SDS011;65859;43.020;25.096;2023-12-20T15:56:53;249.50;;;150.25;;